sensor_id;sensor_type;location;lat;lon;timestamp;P1;durP1;ratioP1;P2;durP2;ratioP2
69573;SDS011;62840;52.366;5.980;2022-10-03T00:01:00;6.10;;;1.30;;
69573;SDS011;62840;52.366;5.980;2022-10-03T00:07:05;4.65;;;1.00;;
69573;SDS011;62840;52.366;5.980;2022-10-03T00:09:53;4.05;;;1.25;;
69573;SDS011;62840;52.366;5.980;2022-10-03T00:12:44;6.00;;;1.10;;
69573;SDS011;62840;52.366;5.980;2022-10-03T00:15:38;4.03;;;1.00;;
69573;SDS011;62840;52.366;5.980;2022-10-03T00:18:24;4.32;;;0.85;;
69573;SDS011;62840;52.366;5.980;2022-10-03T00:21:17;5.65;;;1.50;;
69573;SDS011;62840;52.366;5.980;2022-10-03T00:23:59;7.22;;;1.30;;
69573;SDS011;62840;52.366;5.980;2022-10-03T00:26:48;4.93;;;1.25;;
69573;SDS011;62840;52.366;5.980;2022-10-03T00:32:32;4.72;;;0.90;;
69573;SDS011;62840;52.366;5.980;2022-10-03T00:35:27;6.03;;;1.20;;
69573;SDS011;62840;52.366;5.980;2022-10-03T00:38:11;5.88;;;1.00;;
69573;SDS011;62840;52.366;5.980;2022-10-03T00:41:19;5.03;;;1.33;;
69573;SDS011;62840;52.366;5.980;2022-10-03T00:47:43;5.13;;;1.10;;
69573;SDS011;62840;52.366;5.980;2022-10-03T00:50:38;6.03;;;1.08;;
69573;SDS011;62840;52.366;5.980;2022-10-03T00:53:42;5.38;;;1.58;;
69573;SDS011;62840;52.366;5.980;2022-10-03T00:56:42;6.30;;;1.02;;
69573;SDS011;62840;52.366;5.980;2022-10-03T00:59:37;4.30;;;0.98;;
69573;SDS011;62840;52.366;5.980;2022-10-03T01:02:43;5.57;;;1.10;;
69573;SDS011;62840;52.366;5.980;2022-10-03T01:05:26;5.00;;;1.05;;
69573;SDS011;62840;52.366;5.980;2022-10-03T01:08:24;8.02;;;1.30;;
69573;SDS011;62840;52.366;5.980;2022-10-03T01:11:13;5.50;;;1.10;;
69573;SDS011;62840;52.366;5.980;2022-10-03T01:13:57;8.48;;;2.00;;
69573;SDS011;62840;52.366;5.980;2022-10-03T01:16:42;5.57;;;1.00;;
69573;SDS011;62840;52.366;5.980;2022-10-03T01:19:42;4.65;;;1.00;;
69573;SDS011;62840;52.366;5.980;2022-10-03T01:22:47;4.38;;;1.10;;
69573;SDS011;62840;52.366;5.980;2022-10-03T01:25:51;6.63;;;1.15;;
69573;SDS011;62840;52.366;5.980;2022-10-03T01:28:51;4.15;;;1.15;;
69573;SDS011;62840;52.366;5.980;2022-10-03T01:31:33;5.75;;;1.00;;
69573;SDS011;62840;52.366;5.980;2022-10-03T01:34:13;4.97;;;1.15;;
69573;SDS011;62840;52.366;5.980;2022-10-03T01:36:53;4.60;;;1.38;;
69573;SDS011;62840;52.366;5.980;2022-10-03T01:39:33;5.10;;;1.05;;
69573;SDS011;62840;52.366;5.980;2022-10-03T01:42:14;5.35;;;1.00;;
69573;SDS011;62840;52.366;5.980;2022-10-03T01:45:05;6.75;;;1.02;;
69573;SDS011;62840;52.366;5.980;2022-10-03T01:47:49;5.03;;;1.17;;
69573;SDS011;62840;52.366;5.980;2022-10-03T01:50:30;7.45;;;1.60;;
69573;SDS011;62840;52.366;5.980;2022-10-03T01:53:14;5.15;;;1.05;;
69573;SDS011;62840;52.366;5.980;2022-10-03T01:55:58;7.47;;;1.20;;
69573;SDS011;62840;52.366;5.980;2022-10-03T01:58:39;6.90;;;1.45;;
69573;SDS011;62840;52.366;5.980;2022-10-03T02:01:24;6.30;;;1.17;;
69573;SDS011;62840;52.366;5.980;2022-10-03T02:04:11;6.65;;;1.17;;
69573;SDS011;62840;52.366;5.980;2022-10-03T02:06:47;5.65;;;1.40;;
69573;SDS011;62840;52.366;5.980;2022-10-03T02:09:29;5.68;;;1.63;;
69573;SDS011;62840;52.366;5.980;2022-10-03T02:12:08;5.50;;;1.02;;
69573;SDS011;62840;52.366;5.980;2022-10-03T02:14:51;5.57;;;1.13;;
69573;SDS011;62840;52.366;5.980;2022-10-03T02:17:35;5.18;;;1.30;;
69573;SDS011;62840;52.366;5.980;2022-10-03T02:20:18;5.10;;;1.13;;
69573;SDS011;62840;52.366;5.980;2022-10-03T02:22:58;4.20;;;1.05;;
69573;SDS011;62840;52.366;5.980;2022-10-03T02:25:29;7.97;;;1.65;;
69573;SDS011;62840;52.366;5.980;2022-10-03T02:28:31;4.95;;;1.02;;
69573;SDS011;62840;52.366;5.980;2022-10-03T02:34:51;5.47;;;1.10;;
69573;SDS011;62840;52.366;5.980;2022-10-03T02:38:13;6.88;;;1.60;;
69573;SDS011;62840;52.366;5.980;2022-10-03T02:41:10;9.90;;;1.20;;
69573;SDS011;62840;52.366;5.980;2022-10-03T02:44:11;5.03;;;1.15;;
69573;SDS011;62840;52.366;5.980;2022-10-03T02:47:31;3.25;;;1.10;;
69573;SDS011;62840;52.366;5.980;2022-10-03T03:00:18;4.75;;;1.38;;
69573;SDS011;62840;52.366;5.980;2022-10-03T03:03:11;7.20;;;1.13;;
69573;SDS011;62840;52.366;5.980;2022-10-03T03:06:17;6.45;;;1.30;;
69573;SDS011;62840;52.366;5.980;2022-10-03T03:12:42;5.50;;;1.20;;
69573;SDS011;62840;52.366;5.980;2022-10-03T03:15:56;5.88;;;1.35;;
69573;SDS011;62840;52.366;5.980;2022-10-03T03:19:15;3.58;;;1.08;;
69573;SDS011;62840;52.366;5.980;2022-10-03T03:22:08;5.53;;;1.30;;
69573;SDS011;62840;52.366;5.980;2022-10-03T03:25:03;4.50;;;1.20;;
69573;SDS011;62840;52.366;5.980;2022-10-03T03:28:05;5.38;;;1.20;;
69573;SDS011;62840;52.366;5.980;2022-10-03T03:30:51;6.55;;;1.30;;
69573;SDS011;62840;52.366;5.980;2022-10-03T03:33:39;6.10;;;1.30;;
69573;SDS011;62840;52.366;5.980;2022-10-03T03:36:24;4.20;;;1.40;;
69573;SDS011;62840;52.366;5.980;2022-10-03T03:39:27;3.60;;;1.05;;
69573;SDS011;62840;52.366;5.980;2022-10-03T03:42:26;7.57;;;1.67;;
69573;SDS011;62840;52.366;5.980;2022-10-03T03:45:20;6.75;;;1.23;;
69573;SDS011;62840;52.366;5.980;2022-10-03T03:48:09;4.95;;;1.30;;
69573;SDS011;62840;52.366;5.980;2022-10-03T03:51:03;5.75;;;1.50;;
69573;SDS011;62840;52.366;5.980;2022-10-03T03:56:54;5.30;;;1.42;;
69573;SDS011;62840;52.366;5.980;2022-10-03T04:00:00;4.65;;;1.30;;
69573;SDS011;62840;52.366;5.980;2022-10-03T04:05:43;5.18;;;1.20;;
69573;SDS011;62840;52.366;5.980;2022-10-03T04:08:37;6.78;;;1.20;;
69573;SDS011;62840;52.366;5.980;2022-10-03T04:11:26;6.70;;;1.52;;
69573;SDS011;62840;52.366;5.980;2022-10-03T04:14:21;7.57;;;1.83;;
69573;SDS011;62840;52.366;5.980;2022-10-03T04:17:06;3.97;;;1.23;;
69573;SDS011;62840;52.366;5.980;2022-10-03T04:20:01;3.88;;;1.13;;
69573;SDS011;62840;52.366;5.980;2022-10-03T04:22:47;6.00;;;1.60;;
69573;SDS011;62840;52.366;5.980;2022-10-03T04:25:33;6.53;;;1.45;;
69573;SDS011;62840;52.366;5.980;2022-10-03T04:31:38;8.50;;;1.20;;
69573;SDS011;62840;52.366;5.980;2022-10-03T04:34:18;4.15;;;0.95;;
69573;SDS011;62840;52.366;5.980;2022-10-03T04:37:04;5.43;;;1.10;;
69573;SDS011;62840;52.366;5.980;2022-10-03T04:39:48;6.85;;;1.20;;
69573;SDS011;62840;52.366;5.980;2022-10-03T04:42:35;5.47;;;1.13;;
69573;SDS011;62840;52.366;5.980;2022-10-03T04:45:23;4.30;;;0.95;;
69573;SDS011;62840;52.366;5.980;2022-10-03T04:48:22;7.53;;;2.92;;
69573;SDS011;62840;52.366;5.980;2022-10-03T04:51:02;5.68;;;1.35;;
69573;SDS011;62840;52.366;5.980;2022-10-03T04:53:46;4.93;;;1.02;;
69573;SDS011;62840;52.366;5.980;2022-10-03T04:59:24;5.95;;;1.50;;
69573;SDS011;62840;52.366;5.980;2022-10-03T05:02:16;6.45;;;1.23;;
69573;SDS011;62840;52.366;5.980;2022-10-03T05:05:07;3.75;;;1.02;;
69573;SDS011;62840;52.366;5.980;2022-10-03T05:08:03;4.15;;;1.23;;
69573;SDS011;62840;52.366;5.980;2022-10-03T05:10:49;7.50;;;1.15;;
69573;SDS011;62840;52.366;5.980;2022-10-03T05:13:30;3.95;;;1.23;;
69573;SDS011;62840;52.366;5.980;2022-10-03T05:16:08;5.20;;;1.30;;
69573;SDS011;62840;52.366;5.980;2022-10-03T05:19:08;5.38;;;1.65;;
69573;SDS011;62840;52.366;5.980;2022-10-03T05:22:21;4.18;;;1.23;;
69573;SDS011;62840;52.366;5.980;2022-10-03T05:25:12;4.90;;;1.10;;
69573;SDS011;62840;52.366;5.980;2022-10-03T05:27:53;5.07;;;1.13;;
69573;SDS011;62840;52.366;5.980;2022-10-03T05:30:40;3.70;;;1.20;;
69573;SDS011;62840;52.366;5.980;2022-10-03T05:33:14;5.82;;;1.60;;
69573;SDS011;62840;52.366;5.980;2022-10-03T05:36:10;6.35;;;1.40;;
69573;SDS011;62840;52.366;5.980;2022-10-03T05:41:51;4.63;;;1.17;;
69573;SDS011;62840;52.366;5.980;2022-10-03T05:44:32;6.65;;;1.65;;
69573;SDS011;62840;52.366;5.980;2022-10-03T05:47:20;4.18;;;1.33;;
69573;SDS011;62840;52.366;5.980;2022-10-03T05:50:03;5.03;;;1.10;;
69573;SDS011;62840;52.366;5.980;2022-10-03T05:53:04;5.03;;;1.52;;
69573;SDS011;62840;52.366;5.980;2022-10-03T05:55:52;7.70;;;1.30;;
69573;SDS011;62840;52.366;5.980;2022-10-03T06:01:51;4.38;;;1.20;;
69573;SDS011;62840;52.366;5.980;2022-10-03T06:11:19;4.75;;;1.10;;
69573;SDS011;62840;52.366;5.980;2022-10-03T06:14:26;4.35;;;0.98;;
69573;SDS011;62840;52.366;5.980;2022-10-03T06:17:19;4.72;;;1.30;;
69573;SDS011;62840;52.366;5.980;2022-10-03T06:20:22;3.60;;;1.10;;
69573;SDS011;62840;52.366;5.980;2022-10-03T06:23:31;3.53;;;1.10;;
69573;SDS011;62840;52.366;5.980;2022-10-03T06:26:27;3.33;;;1.10;;
69573;SDS011;62840;52.366;5.980;2022-10-03T06:36:06;5.00;;;1.50;;
69573;SDS011;62840;52.366;5.980;2022-10-03T06:42:14;4.43;;;1.17;;
69573;SDS011;62840;52.366;5.980;2022-10-03T06:48:56;5.33;;;1.47;;
69573;SDS011;62840;52.366;5.980;2022-10-03T06:52:01;6.60;;;1.13;;
69573;SDS011;62840;52.366;5.980;2022-10-03T07:01:52;3.13;;;1.23;;
69573;SDS011;62840;52.366;5.980;2022-10-03T07:04:58;5.05;;;1.45;;
69573;SDS011;62840;52.366;5.980;2022-10-03T07:11:41;5.72;;;1.08;;
69573;SDS011;62840;52.366;5.980;2022-10-03T07:31:35;5.18;;;1.20;;
69573;SDS011;62840;52.366;5.980;2022-10-03T07:37:48;4.60;;;1.00;;
69573;SDS011;62840;52.366;5.980;2022-10-03T07:41:03;5.00;;;1.27;;
69573;SDS011;62840;52.366;5.980;2022-10-03T07:50:42;3.53;;;1.15;;
69573;SDS011;62840;52.366;5.980;2022-10-03T07:53:25;3.38;;;1.00;;
69573;SDS011;62840;52.366;5.980;2022-10-03T07:56:31;3.20;;;1.10;;
69573;SDS011;62840;52.366;5.980;2022-10-03T07:59:43;5.30;;;1.08;;
69573;SDS011;62840;52.366;5.980;2022-10-03T08:06:00;3.20;;;1.08;;
69573;SDS011;62840;52.366;5.980;2022-10-03T08:15:43;5.63;;;1.20;;
69573;SDS011;62840;52.366;5.980;2022-10-03T08:18:53;3.90;;;1.00;;
69573;SDS011;62840;52.366;5.980;2022-10-03T08:21:51;2.78;;;0.63;;
69573;SDS011;62840;52.366;5.980;2022-10-03T08:24:36;3.22;;;1.00;;
69573;SDS011;62840;52.366;5.980;2022-10-03T08:27:40;5.15;;;0.77;;
69573;SDS011;62840;52.366;5.980;2022-10-03T08:30:50;4.40;;;0.90;;
69573;SDS011;62840;52.366;5.980;2022-10-03T08:34:19;3.60;;;0.90;;
69573;SDS011;62840;52.366;5.980;2022-10-03T08:44:07;4.15;;;0.77;;
69573;SDS011;62840;52.366;5.980;2022-10-03T08:47:15;3.40;;;0.82;;
69573;SDS011;62840;52.366;5.980;2022-10-03T08:50:16;5.38;;;1.17;;
69573;SDS011;62840;52.366;5.980;2022-10-03T08:56:19;4.10;;;1.05;;
69573;SDS011;62840;52.366;5.980;2022-10-03T08:59:02;4.22;;;1.10;;
69573;SDS011;62840;52.366;5.980;2022-10-03T09:02:19;5.93;;;0.80;;
69573;SDS011;62840;52.366;5.980;2022-10-03T09:05:36;4.35;;;0.95;;
69573;SDS011;62840;52.366;5.980;2022-10-03T09:08:44;4.53;;;0.95;;
69573;SDS011;62840;52.366;5.980;2022-10-03T09:15:09;6.72;;;1.33;;
69573;SDS011;62840;52.366;5.980;2022-10-03T09:18:40;5.40;;;1.02;;
69573;SDS011;62840;52.366;5.980;2022-10-03T09:27:51;6.82;;;1.38;;
69573;SDS011;62840;52.366;5.980;2022-10-03T09:30:54;4.20;;;1.20;;
69573;SDS011;62840;52.366;5.980;2022-10-03T09:33:57;5.93;;;1.48;;
69573;SDS011;62840;52.366;5.980;2022-10-03T09:37:03;4.50;;;0.70;;
69573;SDS011;62840;52.366;5.980;2022-10-03T09:43:30;5.87;;;1.00;;
69573;SDS011;62840;52.366;5.980;2022-10-03T09:46:51;6.10;;;1.20;;
69573;SDS011;62840;52.366;5.980;2022-10-03T09:49:58;4.55;;;0.82;;
69573;SDS011;62840;52.366;5.980;2022-10-03T10:00:08;6.55;;;1.38;;
69573;SDS011;62840;52.366;5.980;2022-10-03T10:12:37;5.30;;;1.00;;
69573;SDS011;62840;52.366;5.980;2022-10-03T10:15:45;4.18;;;0.98;;
69573;SDS011;62840;52.366;5.980;2022-10-03T10:22:17;4.95;;;1.10;;
69573;SDS011;62840;52.366;5.980;2022-10-03T10:28:38;5.43;;;1.05;;
69573;SDS011;62840;52.366;5.980;2022-10-03T10:38:29;5.07;;;1.20;;
69573;SDS011;62840;52.366;5.980;2022-10-03T10:45:22;4.45;;;1.35;;
69573;SDS011;62840;52.366;5.980;2022-10-03T11:01:58;4.65;;;1.40;;
69573;SDS011;62840;52.366;5.980;2022-10-03T11:12:02;5.03;;;0.98;;
69573;SDS011;62840;52.366;5.980;2022-10-03T11:15:29;4.22;;;1.10;;
69573;SDS011;62840;52.366;5.980;2022-10-03T11:22:18;5.15;;;1.10;;
69573;SDS011;62840;52.366;5.980;2022-10-03T11:29:21;3.92;;;0.70;;
69573;SDS011;62840;52.366;5.980;2022-10-03T11:36:22;4.30;;;1.00;;
69573;SDS011;62840;52.366;5.980;2022-10-03T11:39:15;8.32;;;1.27;;
69573;SDS011;62840;52.366;5.980;2022-10-03T11:41:57;4.03;;;1.00;;
69573;SDS011;62840;52.366;5.980;2022-10-03T11:44:41;5.18;;;1.00;;
69573;SDS011;62840;52.366;5.980;2022-10-03T11:47:25;4.03;;;0.80;;
69573;SDS011;62840;52.366;5.980;2022-10-03T11:50:17;4.15;;;0.90;;
69573;SDS011;62840;52.366;5.980;2022-10-03T11:53:00;5.63;;;0.95;;
69573;SDS011;62840;52.366;5.980;2022-10-03T11:55:41;3.67;;;1.00;;
69573;SDS011;62840;52.366;5.980;2022-10-03T11:58:29;5.82;;;1.10;;
69573;SDS011;62840;52.366;5.980;2022-10-03T12:01:16;3.35;;;1.10;;
69573;SDS011;62840;52.366;5.980;2022-10-03T12:03:52;4.40;;;0.73;;
69573;SDS011;62840;52.366;5.980;2022-10-03T12:06:33;3.97;;;0.90;;
69573;SDS011;62840;52.366;5.980;2022-10-03T12:09:19;3.50;;;0.75;;
69573;SDS011;62840;52.366;5.980;2022-10-03T12:11:59;9.65;;;1.58;;
69573;SDS011;62840;52.366;5.980;2022-10-03T12:14:41;4.25;;;0.80;;
69573;SDS011;62840;52.366;5.980;2022-10-03T12:17:14;3.92;;;1.10;;
69573;SDS011;62840;52.366;5.980;2022-10-03T12:19:55;5.82;;;1.40;;
69573;SDS011;62840;52.366;5.980;2022-10-03T12:22:49;3.30;;;1.08;;
69573;SDS011;62840;52.366;5.980;2022-10-03T12:25:26;4.75;;;1.48;;
69573;SDS011;62840;52.366;5.980;2022-10-03T12:27:58;4.30;;;1.35;;
69573;SDS011;62840;52.366;5.980;2022-10-03T12:30:37;4.43;;;1.00;;
69573;SDS011;62840;52.366;5.980;2022-10-03T12:33:25;4.20;;;1.10;;
69573;SDS011;62840;52.366;5.980;2022-10-03T12:36:14;4.38;;;1.17;;
69573;SDS011;62840;52.366;5.980;2022-10-03T12:38:57;6.00;;;1.45;;
69573;SDS011;62840;52.366;5.980;2022-10-03T12:41:59;5.47;;;1.50;;
69573;SDS011;62840;52.366;5.980;2022-10-03T12:44:50;4.78;;;1.83;;
69573;SDS011;62840;52.366;5.980;2022-10-03T12:47:42;7.68;;;2.05;;
69573;SDS011;62840;52.366;5.980;2022-10-03T12:50:29;3.78;;;1.45;;
69573;SDS011;62840;52.366;5.980;2022-10-03T12:53:21;4.32;;;1.40;;
69573;SDS011;62840;52.366;5.980;2022-10-03T12:56:01;7.78;;;2.15;;
69573;SDS011;62840;52.366;5.980;2022-10-03T12:58:51;5.75;;;1.40;;
69573;SDS011;62840;52.366;5.980;2022-10-03T13:04:50;4.00;;;1.10;;
69573;SDS011;62840;52.366;5.980;2022-10-03T13:07:53;4.72;;;1.00;;
69573;SDS011;62840;52.366;5.980;2022-10-03T13:10:30;4.25;;;1.27;;
69573;SDS011;62840;52.366;5.980;2022-10-03T13:13:13;5.28;;;1.63;;
69573;SDS011;62840;52.366;5.980;2022-10-03T13:18:56;4.00;;;1.20;;
69573;SDS011;62840;52.366;5.980;2022-10-03T13:21:46;4.90;;;1.20;;
69573;SDS011;62840;52.366;5.980;2022-10-03T13:24:27;5.90;;;1.45;;
69573;SDS011;62840;52.366;5.980;2022-10-03T13:27:03;5.47;;;1.08;;
69573;SDS011;62840;52.366;5.980;2022-10-03T13:30:01;4.75;;;1.30;;
69573;SDS011;62840;52.366;5.980;2022-10-03T13:32:44;6.53;;;1.95;;
69573;SDS011;62840;52.366;5.980;2022-10-03T13:35:28;6.18;;;1.83;;
69573;SDS011;62840;52.366;5.980;2022-10-03T13:38:22;6.90;;;1.60;;
69573;SDS011;62840;52.366;5.980;2022-10-03T13:41:16;3.40;;;1.40;;
69573;SDS011;62840;52.366;5.980;2022-10-03T13:44:02;7.20;;;2.45;;
69573;SDS011;62840;52.366;5.980;2022-10-03T13:46:41;4.38;;;1.77;;
69573;SDS011;62840;52.366;5.980;2022-10-03T13:49:18;6.07;;;1.70;;
69573;SDS011;62840;52.366;5.980;2022-10-03T13:51:55;7.05;;;2.17;;
69573;SDS011;62840;52.366;5.980;2022-10-03T13:54:36;8.63;;;2.10;;
69573;SDS011;62840;52.366;5.980;2022-10-03T13:57:31;5.13;;;1.50;;
69573;SDS011;62840;52.366;5.980;2022-10-03T14:00:05;5.95;;;1.25;;
69573;SDS011;62840;52.366;5.980;2022-10-03T14:05:50;6.20;;;1.50;;
69573;SDS011;62840;52.366;5.980;2022-10-03T14:08:45;4.43;;;1.10;;
69573;SDS011;62840;52.366;5.980;2022-10-03T14:11:31;4.47;;;1.30;;
69573;SDS011;62840;52.366;5.980;2022-10-03T14:17:18;3.95;;;1.17;;
69573;SDS011;62840;52.366;5.980;2022-10-03T14:20:05;5.63;;;1.40;;
69573;SDS011;62840;52.366;5.980;2022-10-03T14:22:54;5.28;;;1.40;;
69573;SDS011;62840;52.366;5.980;2022-10-03T14:25:41;4.68;;;1.00;;
69573;SDS011;62840;52.366;5.980;2022-10-03T14:28:31;7.13;;;1.50;;
69573;SDS011;62840;52.366;5.980;2022-10-03T14:31:12;4.90;;;1.35;;
69573;SDS011;62840;52.366;5.980;2022-10-03T14:33:50;5.20;;;1.20;;
69573;SDS011;62840;52.366;5.980;2022-10-03T14:36:31;5.63;;;1.52;;
69573;SDS011;62840;52.366;5.980;2022-10-03T14:39:21;3.85;;;1.67;;
69573;SDS011;62840;52.366;5.980;2022-10-03T14:45:12;7.60;;;1.50;;
69573;SDS011;62840;52.366;5.980;2022-10-03T14:47:49;7.38;;;1.67;;
69573;SDS011;62840;52.366;5.980;2022-10-03T14:50:22;4.75;;;1.42;;
69573;SDS011;62840;52.366;5.980;2022-10-03T14:52:57;7.40;;;1.75;;
69573;SDS011;62840;52.366;5.980;2022-10-03T14:55:37;5.43;;;1.60;;
69573;SDS011;62840;52.366;5.980;2022-10-03T14:58:12;5.13;;;1.63;;
69573;SDS011;62840;52.366;5.980;2022-10-03T15:00:47;6.15;;;1.60;;
69573;SDS011;62840;52.366;5.980;2022-10-03T15:03:28;4.22;;;1.23;;
69573;SDS011;62840;52.366;5.980;2022-10-03T15:06:16;6.40;;;1.58;;
69573;SDS011;62840;52.366;5.980;2022-10-03T15:08:59;6.47;;;1.23;;
69573;SDS011;62840;52.366;5.980;2022-10-03T15:11:35;6.95;;;1.70;;
69573;SDS011;62840;52.366;5.980;2022-10-03T15:14:12;5.00;;;1.70;;
69573;SDS011;62840;52.366;5.980;2022-10-03T15:16:42;7.15;;;1.95;;
69573;SDS011;62840;52.366;5.980;2022-10-03T15:19:17;5.82;;;1.50;;
69573;SDS011;62840;52.366;5.980;2022-10-03T15:21:52;6.57;;;2.17;;
69573;SDS011;62840;52.366;5.980;2022-10-03T15:24:35;4.15;;;1.40;;
69573;SDS011;62840;52.366;5.980;2022-10-03T15:27:11;7.78;;;1.90;;
69573;SDS011;62840;52.366;5.980;2022-10-03T15:29:45;6.38;;;2.17;;
69573;SDS011;62840;52.366;5.980;2022-10-03T15:32:24;5.32;;;1.88;;
69573;SDS011;62840;52.366;5.980;2022-10-03T15:35:02;4.88;;;1.40;;
69573;SDS011;62840;52.366;5.980;2022-10-03T15:37:32;5.32;;;1.50;;
69573;SDS011;62840;52.366;5.980;2022-10-03T15:40:06;5.03;;;1.55;;
69573;SDS011;62840;52.366;5.980;2022-10-03T15:43:00;5.00;;;1.42;;
69573;SDS011;62840;52.366;5.980;2022-10-03T15:45:31;3.90;;;1.55;;
69573;SDS011;62840;52.366;5.980;2022-10-03T15:48:01;7.07;;;1.73;;
69573;SDS011;62840;52.366;5.980;2022-10-03T15:50:36;5.05;;;1.92;;
69573;SDS011;62840;52.366;5.980;2022-10-03T15:53:05;4.75;;;1.58;;
69573;SDS011;62840;52.366;5.980;2022-10-03T15:55:47;4.50;;;1.60;;
69573;SDS011;62840;52.366;5.980;2022-10-03T15:58:22;6.35;;;1.58;;
69573;SDS011;62840;52.366;5.980;2022-10-03T16:01:00;4.97;;;1.48;;
69573;SDS011;62840;52.366;5.980;2022-10-03T16:03:35;7.32;;;1.73;;
69573;SDS011;62840;52.366;5.980;2022-10-03T16:06:17;7.00;;;1.95;;
69573;SDS011;62840;52.366;5.980;2022-10-03T16:08:54;7.20;;;1.85;;
69573;SDS011;62840;52.366;5.980;2022-10-03T16:11:30;4.60;;;1.77;;
69573;SDS011;62840;52.366;5.980;2022-10-03T16:14:17;5.15;;;1.75;;
69573;SDS011;62840;52.366;5.980;2022-10-03T16:16:53;4.20;;;1.48;;
69573;SDS011;62840;52.366;5.980;2022-10-03T16:19:29;6.72;;;2.00;;
69573;SDS011;62840;52.366;5.980;2022-10-03T16:22:15;4.22;;;1.88;;
69573;SDS011;62840;52.366;5.980;2022-10-03T16:24:56;7.78;;;2.33;;
69573;SDS011;62840;52.366;5.980;2022-10-03T16:27:31;6.55;;;2.10;;
69573;SDS011;62840;52.366;5.980;2022-10-03T16:30:16;5.78;;;2.03;;
69573;SDS011;62840;52.366;5.980;2022-10-03T16:32:48;5.43;;;1.50;;
69573;SDS011;62840;52.366;5.980;2022-10-03T16:35:30;5.70;;;2.10;;
69573;SDS011;62840;52.366;5.980;2022-10-03T16:38:03;7.28;;;1.65;;
69573;SDS011;62840;52.366;5.980;2022-10-03T16:40:49;7.85;;;1.83;;
69573;SDS011;62840;52.366;5.980;2022-10-03T16:43:20;5.97;;;1.55;;
69573;SDS011;62840;52.366;5.980;2022-10-03T16:45:53;5.43;;;1.60;;
69573;SDS011;62840;52.366;5.980;2022-10-03T16:48:38;6.20;;;1.67;;
69573;SDS011;62840;52.366;5.980;2022-10-03T16:51:16;4.82;;;1.80;;
69573;SDS011;62840;52.366;5.980;2022-10-03T16:53:46;6.85;;;2.10;;
69573;SDS011;62840;52.366;5.980;2022-10-03T16:56:19;7.90;;;1.70;;
69573;SDS011;62840;52.366;5.980;2022-10-03T16:58:50;7.63;;;1.70;;
69573;SDS011;62840;52.366;5.980;2022-10-03T17:01:34;5.75;;;2.20;;
69573;SDS011;62840;52.366;5.980;2022-10-03T17:04:13;9.07;;;5.47;;
69573;SDS011;62840;52.366;5.980;2022-10-03T17:06:49;8.15;;;3.33;;
69573;SDS011;62840;52.366;5.980;2022-10-03T17:09:21;7.85;;;3.25;;
69573;SDS011;62840;52.366;5.980;2022-10-03T17:11:59;7.07;;;3.00;;
69573;SDS011;62840;52.366;5.980;2022-10-03T17:14:32;5.40;;;2.28;;
69573;SDS011;62840;52.366;5.980;2022-10-03T17:17:07;6.20;;;2.33;;
69573;SDS011;62840;52.366;5.980;2022-10-03T17:19:56;8.60;;;2.38;;
69573;SDS011;62840;52.366;5.980;2022-10-03T17:22:35;6.47;;;2.15;;
69573;SDS011;62840;52.366;5.980;2022-10-03T17:28:08;5.97;;;2.92;;
69573;SDS011;62840;52.366;5.980;2022-10-03T17:30:45;6.95;;;2.53;;
69573;SDS011;62840;52.366;5.980;2022-10-03T17:33:20;8.27;;;3.00;;
69573;SDS011;62840;52.366;5.980;2022-10-03T17:35:57;6.45;;;2.63;;
69573;SDS011;62840;52.366;5.980;2022-10-03T17:38:57;9.35;;;2.55;;
69573;SDS011;62840;52.366;5.980;2022-10-03T17:41:32;5.85;;;2.10;;
69573;SDS011;62840;52.366;5.980;2022-10-03T17:44:13;6.55;;;1.85;;
69573;SDS011;62840;52.366;5.980;2022-10-03T17:46:55;8.40;;;2.40;;
69573;SDS011;62840;52.366;5.980;2022-10-03T17:49:39;6.45;;;2.17;;
69573;SDS011;62840;52.366;5.980;2022-10-03T17:52:17;7.53;;;2.03;;
69573;SDS011;62840;52.366;5.980;2022-10-03T17:54:46;5.35;;;1.80;;
69573;SDS011;62840;52.366;5.980;2022-10-03T17:57:20;5.97;;;1.90;;
69573;SDS011;62840;52.366;5.980;2022-10-03T17:59:53;8.35;;;1.80;;
69573;SDS011;62840;52.366;5.980;2022-10-03T18:02:30;6.18;;;1.60;;
69573;SDS011;62840;52.366;5.980;2022-10-03T18:05:15;7.75;;;1.88;;
69573;SDS011;62840;52.366;5.980;2022-10-03T18:07:47;7.78;;;1.52;;
69573;SDS011;62840;52.366;5.980;2022-10-03T18:10:18;6.70;;;1.80;;
69573;SDS011;62840;52.366;5.980;2022-10-03T18:12:49;10.40;;;1.63;;
69573;SDS011;62840;52.366;5.980;2022-10-03T18:18:42;5.93;;;2.05;;
69573;SDS011;62840;52.366;5.980;2022-10-03T18:24:50;5.78;;;2.20;;
69573;SDS011;62840;52.366;5.980;2022-10-03T18:27:39;4.13;;;2.03;;
69573;SDS011;62840;52.366;5.980;2022-10-03T18:30:31;6.13;;;2.30;;
69573;SDS011;62840;52.366;5.980;2022-10-03T18:33:07;7.10;;;2.00;;
69573;SDS011;62840;52.366;5.980;2022-10-03T18:35:45;5.55;;;2.50;;
69573;SDS011;62840;52.366;5.980;2022-10-03T18:38:18;6.28;;;2.08;;
69573;SDS011;62840;52.366;5.980;2022-10-03T18:40:50;5.88;;;1.77;;
69573;SDS011;62840;52.366;5.980;2022-10-03T18:43:24;9.45;;;2.60;;
69573;SDS011;62840;52.366;5.980;2022-10-03T18:46:04;8.75;;;2.35;;
69573;SDS011;62840;52.366;5.980;2022-10-03T18:48:54;10.38;;;2.40;;
69573;SDS011;62840;52.366;5.980;2022-10-03T18:51:42;9.02;;;2.55;;
69573;SDS011;62840;52.366;5.980;2022-10-03T18:54:24;8.95;;;2.40;;
69573;SDS011;62840;52.366;5.980;2022-10-03T18:57:07;5.88;;;1.90;;
69573;SDS011;62840;52.366;5.980;2022-10-03T18:59:47;6.07;;;2.25;;
69573;SDS011;62840;52.366;5.980;2022-10-03T19:02:31;6.47;;;2.45;;
69573;SDS011;62840;52.366;5.980;2022-10-03T19:05:08;5.13;;;1.70;;
69573;SDS011;62840;52.366;5.980;2022-10-03T19:07:43;9.57;;;2.88;;
69573;SDS011;62840;52.366;5.980;2022-10-03T19:10:26;7.03;;;2.00;;
69573;SDS011;62840;52.366;5.980;2022-10-03T19:13:08;6.13;;;1.70;;
69573;SDS011;62840;52.366;5.980;2022-10-03T19:15:57;7.05;;;2.33;;
69573;SDS011;62840;52.366;5.980;2022-10-03T19:18:41;7.93;;;2.00;;
69573;SDS011;62840;52.366;5.980;2022-10-03T19:21:13;8.17;;;2.10;;
69573;SDS011;62840;52.366;5.980;2022-10-03T19:23:45;4.60;;;2.00;;
69573;SDS011;62840;52.366;5.980;2022-10-03T19:26:25;5.05;;;2.00;;
69573;SDS011;62840;52.366;5.980;2022-10-03T19:28:59;8.73;;;2.70;;
69573;SDS011;62840;52.366;5.980;2022-10-03T19:31:30;4.80;;;1.90;;
69573;SDS011;62840;52.366;5.980;2022-10-03T19:34:05;8.95;;;2.10;;
69573;SDS011;62840;52.366;5.980;2022-10-03T19:36:42;9.68;;;2.58;;
69573;SDS011;62840;52.366;5.980;2022-10-03T19:39:11;8.77;;;2.55;;
69573;SDS011;62840;52.366;5.980;2022-10-03T19:41:45;6.40;;;2.40;;
69573;SDS011;62840;52.366;5.980;2022-10-03T19:44:19;6.40;;;2.20;;
69573;SDS011;62840;52.366;5.980;2022-10-03T19:46:55;6.88;;;2.42;;
69573;SDS011;62840;52.366;5.980;2022-10-03T19:49:41;5.60;;;2.58;;
69573;SDS011;62840;52.366;5.980;2022-10-03T19:52:25;7.47;;;2.85;;
69573;SDS011;62840;52.366;5.980;2022-10-03T19:55:00;7.35;;;2.55;;
69573;SDS011;62840;52.366;5.980;2022-10-03T19:57:43;7.82;;;3.17;;
69573;SDS011;62840;52.366;5.980;2022-10-03T20:00:20;8.90;;;3.33;;
69573;SDS011;62840;52.366;5.980;2022-10-03T20:02:54;9.52;;;3.72;;
69573;SDS011;62840;52.366;5.980;2022-10-03T20:05:30;10.05;;;3.90;;
69573;SDS011;62840;52.366;5.980;2022-10-03T20:08:11;9.25;;;3.92;;
69573;SDS011;62840;52.366;5.980;2022-10-03T20:10:49;7.50;;;4.10;;
69573;SDS011;62840;52.366;5.980;2022-10-03T20:13:42;10.70;;;4.35;;
69573;SDS011;62840;52.366;5.980;2022-10-03T20:16:12;9.27;;;4.70;;
69573;SDS011;62840;52.366;5.980;2022-10-03T20:18:41;9.63;;;4.35;;
69573;SDS011;62840;52.366;5.980;2022-10-03T20:21:11;10.98;;;4.50;;
69573;SDS011;62840;52.366;5.980;2022-10-03T20:23:44;10.55;;;4.40;;
69573;SDS011;62840;52.366;5.980;2022-10-03T20:26:17;10.85;;;5.22;;
69573;SDS011;62840;52.366;5.980;2022-10-03T20:29:04;10.10;;;4.70;;
69573;SDS011;62840;52.366;5.980;2022-10-03T20:31:47;9.07;;;4.15;;
69573;SDS011;62840;52.366;5.980;2022-10-03T20:34:15;8.45;;;4.43;;